createdAt,value
2022-08-21T00:00:30.007Z,1.58
2022-08-21T00:03:18.528Z,1.50
2022-08-21T00:06:07.164Z,1.58
2022-08-21T00:09:06.676Z,1.50
2022-08-21T00:11:55.416Z,1.50
2022-08-21T00:14:43.633Z,1.20
2022-08-21T00:17:34.274Z,1.50
2022-08-21T00:20:23.574Z,1.90
2022-08-21T00:23:12.031Z,1.58
2022-08-21T00:26:01.571Z,1.73
2022-08-21T00:28:50.021Z,1.38
2022-08-21T00:31:38.781Z,1.30
2022-08-21T00:34:27.324Z,1.50
2022-08-21T00:37:15.502Z,1.70
2022-08-21T00:40:04.494Z,1.75
2022-08-21T00:42:54.204Z,1.50
2022-08-21T00:45:42.912Z,1.63
2022-08-21T00:48:31.142Z,1.50
2022-08-21T00:51:24.123Z,2.08
2022-08-21T00:54:18.342Z,2.25
2022-08-21T00:57:16.911Z,1.80
2022-08-21T01:00:11.962Z,1.75
2022-08-21T01:03:02.523Z,2.67
2022-08-21T01:05:56.539Z,2.10
2022-08-21T01:08:46.771Z,1.90
2022-08-21T01:11:35.768Z,2.15
2022-08-21T01:14:24.084Z,2.20
2022-08-21T01:17:14.549Z,2.05
2022-08-21T01:20:06.023Z,1.80
2022-08-21T01:22:55.565Z,1.80
2022-08-21T01:25:43.820Z,1.83
2022-08-21T01:28:36.430Z,2.10
2022-08-21T01:31:27.283Z,1.80
2022-08-21T01:34:16.993Z,1.73
2022-08-21T01:37:05.562Z,2.83
2022-08-21T01:39:55.326Z,2.50
2022-08-21T01:42:43.923Z,1.70
2022-08-21T01:45:32.612Z,1.70
2022-08-21T01:48:20.847Z,1.67
2022-08-21T01:51:09.551Z,1.65
2022-08-21T01:53:57.747Z,1.70
2022-08-21T01:56:49.415Z,1.90
2022-08-21T01:59:37.914Z,1.80
2022-08-21T02:02:26.151Z,1.98
2022-08-21T02:05:15.593Z,1.65
2022-08-21T02:08:04.085Z,1.52
2022-08-21T02:10:53.421Z,1.73
2022-08-21T02:13:42.979Z,1.65
2022-08-21T02:16:31.213Z,1.58
2022-08-21T02:19:19.566Z,1.40
2022-08-21T02:22:07.777Z,1.60
2022-08-21T02:24:55.953Z,1.40
2022-08-21T02:27:48.598Z,1.50
2022-08-21T02:30:40.787Z,1.40
2022-08-21T02:33:29.782Z,1.50
2022-08-21T02:36:18.031Z,1.25
2022-08-21T02:39:06.174Z,1.60
2022-08-21T02:41:54.335Z,1.80
2022-08-21T02:44:42.482Z,1.63
2022-08-21T02:47:32.042Z,1.80
2022-08-21T02:50:22.752Z,1.13
2022-08-21T02:53:14.255Z,1.60
2022-08-21T02:56:04.700Z,1.83
2022-08-21T02:58:54.161Z,1.63
2022-08-21T03:01:42.545Z,2.10
2022-08-21T03:04:32.988Z,1.90
2022-08-21T03:07:21.150Z,2.20
2022-08-21T03:10:10.464Z,1.60
2022-08-21T03:12:59.111Z,1.67
2022-08-21T03:15:47.455Z,1.80
2022-08-21T03:18:38.130Z,1.90
2022-08-21T03:21:29.764Z,1.85
2022-08-21T03:24:18.826Z,1.73
2022-08-21T03:27:09.544Z,1.48
2022-08-21T03:29:57.749Z,1.92
2022-08-21T03:32:46.984Z,1.80
2022-08-21T03:35:35.244Z,1.75
2022-08-21T03:38:26.818Z,1.80
2022-08-21T03:41:15.534Z,1.88
2022-08-21T03:44:04.082Z,1.90
2022-08-21T03:46:52.248Z,1.98
2022-08-21T03:49:40.770Z,1.83
2022-08-21T03:52:28.954Z,2.80
2022-08-21T03:55:18.768Z,2.20
2022-08-21T03:58:16.537Z,1.92
2022-08-21T04:01:08.032Z,3.08
2022-08-21T04:03:56.244Z,2.10
2022-08-21T04:06:44.660Z,2.20
2022-08-21T04:09:33.985Z,1.83
2022-08-21T04:12:24.891Z,1.80
2022-08-21T04:18:02.313Z,2.20
2022-08-21T04:20:53.188Z,1.88
2022-08-21T04:26:29.410Z,2.60
2022-08-21T04:29:18.891Z,2.40
2022-08-21T04:32:07.574Z,2.10
2022-08-21T04:35:01.034Z,1.92
2022-08-21T04:37:49.330Z,2.58
2022-08-21T04:40:37.968Z,2.63
2022-08-21T04:43:26.237Z,2.38
2022-08-21T04:46:15.848Z,1.85
2022-08-21T04:49:04.059Z,2.50
2022-08-21T04:51:52.401Z,2.50
2022-08-21T04:54:41.396Z,2.30
2022-08-21T04:57:36.446Z,2.13
2022-08-21T05:00:36.882Z,2.10
2022-08-21T05:03:26.751Z,2.05
2022-08-21T05:06:17.858Z,2.22
2022-08-21T05:09:06.861Z,1.98
2022-08-21T05:11:55.579Z,2.60
2022-08-21T05:14:44.265Z,2.38
2022-08-21T05:17:32.673Z,2.13
2022-08-21T05:20:22.243Z,2.63
2022-08-21T05:23:11.877Z,1.73
2022-08-21T05:26:00.093Z,2.00
2022-08-21T05:28:48.251Z,1.90
2022-08-21T05:31:36.433Z,2.08
2022-08-21T05:34:25.832Z,2.42
2022-08-21T05:37:15.644Z,2.05
2022-08-21T05:40:21.398Z,2.00
2022-08-21T05:43:10.484Z,2.00
2022-08-21T05:45:58.637Z,2.42
2022-08-21T05:48:46.846Z,2.55
2022-08-21T05:51:35.067Z,1.92
2022-08-21T05:54:24.603Z,2.20
2022-08-21T05:57:12.844Z,1.98
2022-08-21T06:00:01.107Z,1.92
2022-08-21T06:02:49.700Z,2.22
2022-08-21T06:05:37.925Z,1.98
2022-08-21T06:08:26.933Z,2.05
2022-08-21T06:11:16.480Z,1.60
2022-08-21T06:14:07.320Z,1.77
2022-08-21T06:19:43.544Z,2.00
2022-08-21T06:25:22.453Z,1.88
2022-08-21T06:28:13.471Z,1.83
2022-08-21T06:31:01.943Z,1.70
2022-08-21T06:33:51.332Z,1.70
2022-08-21T06:36:39.537Z,1.52
2022-08-21T06:39:30.649Z,1.55
2022-08-21T06:42:20.678Z,1.75
2022-08-21T06:45:11.440Z,1.52
2022-08-21T06:47:59.595Z,1.42
2022-08-21T06:50:48.574Z,1.23
2022-08-21T06:53:36.845Z,1.40
2022-08-21T06:56:25.173Z,1.58
2022-08-21T06:59:13.340Z,1.33
2022-08-21T07:02:02.936Z,1.17
2022-08-21T07:04:51.967Z,1.05
2022-08-21T07:07:40.119Z,1.10
2022-08-21T07:10:28.957Z,1.33
2022-08-21T07:13:17.601Z,1.70
2022-08-21T07:16:06.063Z,1.30
2022-08-21T07:18:55.582Z,1.10
2022-08-21T07:21:43.778Z,1.30
2022-08-21T07:24:32.121Z,1.60
2022-08-21T07:27:20.327Z,1.70
2022-08-21T07:30:09.609Z,1.60
2022-08-21T07:32:58.441Z,1.33
2022-08-21T07:35:48.345Z,1.40
2022-08-21T07:38:37.082Z,1.48
2022-08-21T07:41:29.045Z,1.23
2022-08-21T07:44:17.248Z,1.20
2022-08-21T07:47:05.736Z,1.00
2022-08-21T07:49:53.987Z,1.10
2022-08-21T07:52:44.854Z,0.85
2022-08-21T07:55:33.322Z,1.35
2022-08-21T07:58:21.476Z,1.20
2022-08-21T08:01:09.826Z,1.60
2022-08-21T08:03:58.471Z,1.20
2022-08-21T08:06:46.746Z,1.08
2022-08-21T08:09:37.143Z,1.40
2022-08-21T08:12:30.092Z,1.42
2022-08-21T08:15:20.867Z,1.25
2022-08-21T08:20:57.191Z,1.08
2022-08-21T08:23:46.141Z,1.10
2022-08-21T08:26:35.688Z,1.42
2022-08-21T08:29:23.913Z,1.35
2022-08-21T08:32:12.291Z,1.42
2022-08-21T08:35:00.567Z,1.45
2022-08-21T08:37:52.512Z,1.20
2022-08-21T08:40:46.005Z,1.35
2022-08-21T08:43:36.624Z,1.30
2022-08-21T08:46:32.957Z,1.50
2022-08-21T08:49:25.505Z,1.08
2022-08-21T08:52:21.107Z,1.02
2022-08-21T08:55:13.154Z,1.65
2022-08-21T08:58:03.508Z,0.93
2022-08-21T09:00:56.011Z,1.40
2022-08-21T09:03:45.001Z,1.10
2022-08-21T09:06:50.563Z,1.20
2022-08-21T09:09:53.129Z,1.65
2022-08-21T09:12:53.253Z,1.05
2022-08-21T09:15:59.479Z,1.20
2022-08-21T09:18:57.205Z,1.20
2022-08-21T09:21:53.392Z,1.10
2022-08-21T09:24:51.919Z,1.10
2022-08-21T09:27:40.763Z,1.20
2022-08-21T09:30:31.752Z,1.42
2022-08-21T09:33:21.536Z,1.58
2022-08-21T09:36:09.955Z,1.30
2022-08-21T09:38:58.229Z,1.10
2022-08-21T09:41:46.443Z,1.30
2022-08-21T09:44:40.831Z,1.30
2022-08-21T09:47:29.182Z,1.20
2022-08-21T09:50:22.039Z,1.08
2022-08-21T09:53:19.494Z,1.27
2022-08-21T09:56:38.085Z,1.17
2022-08-21T09:59:36.279Z,1.08
2022-08-21T10:02:29.643Z,1.42
2022-08-21T10:05:23.921Z,1.30
2022-08-21T10:08:20.438Z,1.70
2022-08-21T10:11:10.519Z,2.03
2022-08-21T10:14:05.785Z,1.15
2022-08-21T10:17:05.675Z,1.00
2022-08-21T10:20:02.287Z,1.65
2022-08-21T10:23:03.627Z,1.13
2022-08-21T10:26:12.953Z,1.38
2022-08-21T10:29:11.091Z,1.40
2022-08-21T10:32:15.690Z,1.30
2022-08-21T10:35:19.837Z,1.33
2022-08-21T10:39:02.621Z,1.25
2022-08-21T10:42:14.484Z,1.70
2022-08-21T10:45:13.403Z,1.48
2022-08-21T10:48:05.931Z,1.85
2022-08-21T10:50:57.635Z,1.55
2022-08-21T10:53:59.915Z,1.23
2022-08-21T10:56:53.160Z,1.40
2022-08-21T10:59:49.085Z,1.20
2022-08-21T11:02:42.230Z,1.15
2022-08-21T11:05:37.544Z,0.98
2022-08-21T11:08:31.134Z,1.50
2022-08-21T11:11:31.046Z,1.15
2022-08-21T11:14:35.903Z,1.58
2022-08-21T11:17:32.236Z,1.30
2022-08-21T11:20:32.479Z,1.27
2022-08-21T11:23:26.812Z,1.30
2022-08-21T11:26:20.663Z,1.70
2022-08-21T11:29:15.554Z,1.50
2022-08-21T11:32:26.601Z,1.30
2022-08-21T11:35:23.840Z,1.63
2022-08-21T11:38:35.683Z,1.00
2022-08-21T11:41:30.188Z,1.65
2022-08-21T11:44:30.926Z,1.42
2022-08-21T11:47:26.923Z,1.55
2022-08-21T11:50:34.914Z,1.60
2022-08-21T11:53:30.956Z,1.73
2022-08-21T11:56:23.303Z,1.65
2022-08-21T11:59:21.624Z,1.70
2022-08-21T12:02:16.954Z,1.58
2022-08-21T12:05:09.013Z,1.33
2022-08-21T12:08:08.231Z,1.52
2022-08-21T12:11:03.316Z,1.40
2022-08-21T12:13:56.499Z,1.38
2022-08-21T12:16:46.902Z,1.60
2022-08-21T12:19:37.076Z,1.35
2022-08-21T12:22:39.819Z,1.30
2022-08-21T12:25:39.506Z,1.85
2022-08-21T12:31:30.094Z,1.42
2022-08-21T12:34:19.382Z,1.52
2022-08-21T12:37:17.290Z,1.30
2022-08-21T12:40:12.524Z,1.35
2022-08-21T12:43:03.696Z,1.52
2022-08-21T12:45:53.423Z,1.63
2022-08-21T12:48:47.148Z,1.40
2022-08-21T12:51:45.393Z,1.63
2022-08-21T12:54:41.502Z,1.42
2022-08-21T12:57:32.101Z,1.65
2022-08-21T13:00:25.672Z,1.60
2022-08-21T13:03:16.884Z,1.25
2022-08-21T13:06:05.827Z,1.40
2022-08-21T13:08:59.395Z,1.30
2022-08-21T13:11:50.806Z,1.67
2022-08-21T13:14:45.792Z,1.45
2022-08-21T13:17:43.421Z,1.92
2022-08-21T13:20:34.093Z,1.30
2022-08-21T13:23:26.235Z,1.40
2022-08-21T13:26:18.551Z,1.40
2022-08-21T13:29:13.365Z,1.73
2022-08-21T13:32:04.696Z,1.77
2022-08-21T13:34:54.549Z,1.45
2022-08-21T13:37:44.195Z,1.42
2022-08-21T13:40:34.910Z,1.30
2022-08-21T13:43:29.694Z,1.38
2022-08-21T13:46:21.641Z,1.33
2022-08-21T13:49:11.717Z,1.42
2022-08-21T13:54:55.459Z,1.33
2022-08-21T13:57:43.707Z,1.38
2022-08-21T14:00:36.126Z,1.35
2022-08-21T14:03:36.258Z,1.27
2022-08-21T14:06:27.384Z,1.38
2022-08-21T14:09:26.779Z,1.50
2022-08-21T14:12:23.341Z,1.35
2022-08-21T14:15:16.126Z,1.50
2022-08-21T14:18:16.577Z,1.40
2022-08-21T14:21:11.147Z,1.58
2022-08-21T14:24:05.818Z,1.50
2022-08-21T14:26:56.586Z,1.35
2022-08-21T14:29:44.814Z,1.70
2022-08-21T14:32:44.916Z,1.50
2022-08-21T14:35:34.305Z,1.60
2022-08-21T14:38:27.742Z,1.40
2022-08-21T14:41:20.017Z,1.83
2022-08-21T14:44:10.005Z,1.30
2022-08-21T14:46:58.271Z,1.27
2022-08-21T14:49:46.462Z,1.83
2022-08-21T14:52:34.643Z,1.60
2022-08-21T14:55:24.169Z,1.40
2022-08-21T14:58:12.477Z,1.52
2022-08-21T15:01:04.500Z,1.50
2022-08-21T15:03:53.377Z,1.60
2022-08-21T15:06:41.591Z,1.40
2022-08-21T15:09:29.997Z,1.70
2022-08-21T15:12:19.673Z,1.33
2022-08-21T15:15:09.373Z,1.63
2022-08-21T15:17:57.556Z,1.92
2022-08-21T15:20:45.764Z,1.75
2022-08-21T15:23:33.989Z,1.60
2022-08-21T15:26:23.946Z,2.28
2022-08-21T15:29:13.565Z,1.70
2022-08-21T15:32:03.747Z,1.63
2022-08-21T15:37:40.480Z,1.67
2022-08-21T15:40:29.311Z,1.50
2022-08-21T15:43:29.851Z,1.70
2022-08-21T15:46:21.329Z,2.00
2022-08-21T15:49:10.029Z,1.75
2022-08-21T15:51:58.262Z,1.58
2022-08-21T15:54:46.589Z,1.48
2022-08-21T15:57:37.038Z,1.88
2022-08-21T16:00:26.624Z,1.48
2022-08-21T16:03:20.755Z,2.17
2022-08-21T16:06:08.935Z,1.83
2022-08-21T16:08:57.169Z,1.60
2022-08-21T16:11:45.705Z,1.63
2022-08-21T16:14:37.149Z,1.40
2022-08-21T16:17:30.001Z,1.92
2022-08-21T16:20:24.766Z,2.40
2022-08-21T16:23:12.921Z,2.47
2022-08-21T16:26:01.470Z,1.65
2022-08-21T16:28:52.554Z,1.60
2022-08-21T16:31:40.877Z,1.80
2022-08-21T16:34:29.541Z,1.80
2022-08-21T16:37:24.419Z,1.92
2022-08-21T16:40:13.968Z,2.05
2022-08-21T16:43:02.887Z,2.30
2022-08-21T16:45:51.321Z,2.10
2022-08-21T16:48:39.530Z,1.65
2022-08-21T16:51:27.729Z,1.50
2022-08-21T16:54:17.237Z,1.85
2022-08-21T16:57:05.767Z,1.50
2022-08-21T16:59:53.951Z,1.52
2022-08-21T17:02:48.077Z,1.23
2022-08-21T17:05:36.236Z,1.30
2022-08-21T17:08:24.437Z,1.30
2022-08-21T17:11:36.760Z,1.33
2022-08-21T17:14:26.383Z,1.45
2022-08-21T17:17:15.319Z,1.25
2022-08-21T17:20:04.371Z,1.55
2022-08-21T17:22:53.246Z,1.70
2022-08-21T17:25:44.447Z,1.23
2022-08-21T17:28:36.556Z,1.00
2022-08-21T17:31:25.230Z,1.17
2022-08-21T17:34:16.123Z,1.17
2022-08-21T17:37:04.506Z,1.65
2022-08-21T17:39:52.713Z,1.10
2022-08-21T17:42:42.170Z,1.10
2022-08-21T17:45:31.716Z,1.30
2022-08-21T17:48:26.388Z,1.60
2022-08-21T17:51:14.651Z,1.20
2022-08-21T17:54:02.878Z,1.17
2022-08-21T17:56:51.427Z,1.48
2022-08-21T17:59:39.993Z,1.45
2022-08-21T18:02:30.648Z,1.08
2022-08-21T18:05:19.355Z,1.40
2022-08-21T18:08:07.571Z,1.58
2022-08-21T18:10:55.829Z,1.25
2022-08-21T18:13:44.228Z,1.50
2022-08-21T18:16:35.010Z,1.02
2022-08-21T18:19:26.172Z,0.93
2022-08-21T18:22:14.345Z,1.35
2022-08-21T18:25:02.519Z,1.33
2022-08-21T18:27:52.433Z,1.13
2022-08-21T18:30:44.052Z,1.30
2022-08-21T18:33:32.699Z,1.30
2022-08-21T18:36:22.269Z,1.00
2022-08-21T18:39:35.040Z,1.33
2022-08-21T18:42:19.049Z,1.70
2022-08-21T18:45:13.280Z,2.75
2022-08-21T18:48:03.618Z,1.92
2022-08-21T18:50:51.796Z,2.60
2022-08-21T18:53:41.403Z,2.63
2022-08-21T18:56:29.691Z,2.63
2022-08-21T18:59:18.633Z,2.95
2022-08-21T19:02:08.766Z,2.10
2022-08-21T19:04:57.372Z,2.38
2022-08-21T19:07:47.127Z,2.73
2022-08-21T19:10:37.451Z,2.20
2022-08-21T19:13:31.841Z,3.05
2022-08-21T19:16:21.712Z,2.75
2022-08-21T19:19:11.299Z,2.05
2022-08-21T19:21:59.671Z,2.38
2022-08-21T19:27:57.436Z,2.28
2022-08-21T19:30:55.947Z,2.08
2022-08-21T19:33:47.249Z,1.65
2022-08-21T19:36:39.081Z,1.58
2022-08-21T19:39:32.115Z,2.45
2022-08-21T19:42:22.037Z,1.77
2022-08-21T19:45:18.516Z,1.75
2022-08-21T19:48:11.341Z,1.98
2022-08-21T19:51:02.038Z,1.40
2022-08-21T19:53:55.530Z,1.95
2022-08-21T19:56:45.821Z,1.48
2022-08-21T19:59:37.295Z,2.90
2022-08-21T20:02:26.832Z,7.70
2022-08-21T20:05:15.328Z,13.68
2022-08-21T20:08:06.431Z,32.88
2022-08-21T20:11:04.124Z,19.73
2022-08-21T20:13:52.758Z,13.13
2022-08-21T20:16:42.459Z,4.40
2022-08-21T20:19:32.059Z,2.45
2022-08-21T20:22:20.717Z,1.70
2022-08-21T20:25:09.936Z,1.70
2022-08-21T20:27:58.357Z,1.50
2022-08-21T20:30:47.210Z,1.95
2022-08-21T20:33:36.604Z,2.88
2022-08-21T20:36:27.059Z,2.10
2022-08-21T20:39:15.255Z,2.10
2022-08-21T20:42:06.957Z,1.98
2022-08-21T20:44:55.380Z,1.88
2022-08-21T20:47:43.594Z,2.08
2022-08-21T20:50:37.109Z,2.70
2022-08-21T20:53:43.175Z,2.05
2022-08-21T20:56:39.293Z,2.08
2022-08-21T20:59:42.402Z,2.28
2022-08-21T21:02:41.205Z,2.10
2022-08-21T21:05:34.280Z,2.15
2022-08-21T21:08:32.609Z,1.92
2022-08-21T21:11:24.924Z,1.90
2022-08-21T21:14:16.393Z,1.77
2022-08-21T21:17:07.177Z,2.33
2022-08-21T21:22:50.123Z,2.37
2022-08-21T21:25:49.296Z,2.63
2022-08-21T21:28:49.569Z,2.05
2022-08-21T21:31:39.308Z,2.83
2022-08-21T21:34:28.580Z,1.88
2022-08-21T21:37:25.547Z,2.40
2022-08-21T21:40:27.511Z,2.40
2022-08-21T21:43:32.777Z,2.10
2022-08-21T21:46:32.087Z,2.55
2022-08-21T21:49:38.615Z,2.08
2022-08-21T21:52:41.844Z,2.05
2022-08-21T21:55:41.831Z,2.42
2022-08-21T21:59:08.473Z,2.40
2022-08-21T22:02:04.477Z,2.47
2022-08-21T22:05:00.148Z,2.47
2022-08-21T22:07:52.814Z,2.20
2022-08-21T22:10:48.678Z,3.25
2022-08-21T22:13:45.781Z,2.40
2022-08-21T22:16:36.321Z,2.60
2022-08-21T22:19:27.104Z,2.22
2022-08-21T22:25:13.653Z,2.30
2022-08-21T22:28:06.329Z,2.85
2022-08-21T22:30:57.941Z,2.75
2022-08-21T22:34:17.956Z,2.85
2022-08-21T22:37:11.279Z,2.80
2022-08-21T22:39:59.811Z,2.50
2022-08-21T22:42:58.990Z,2.50
2022-08-21T22:45:58.814Z,2.60
2022-08-21T22:48:55.257Z,2.45
2022-08-21T22:51:47.526Z,2.50
2022-08-21T22:54:39.408Z,2.50
2022-08-21T22:57:29.804Z,2.40
2022-08-21T23:00:39.569Z,2.50
2022-08-21T23:06:31.035Z,3.00
2022-08-21T23:09:30.377Z,2.60
2022-08-21T23:12:33.981Z,2.22
2022-08-21T23:15:22.720Z,2.70
2022-08-21T23:18:18.704Z,2.47
2022-08-21T23:21:11.956Z,2.65
2022-08-21T23:24:19.587Z,2.67
2022-08-21T23:27:35.983Z,2.88
2022-08-21T23:30:42.670Z,2.75
2022-08-21T23:33:46.454Z,2.88
2022-08-21T23:37:01.564Z,2.75
2022-08-21T23:40:02.982Z,2.70
2022-08-21T23:43:04.605Z,2.63
2022-08-21T23:46:04.645Z,2.80
2022-08-21T23:49:01.321Z,2.90
2022-08-21T23:52:04.944Z,2.63
2022-08-21T23:55:04.648Z,2.65
2022-08-21T23:58:08.279Z,2.50
